Time;durP1;ratioP1;P1;durP2;ratioP2;P2;SDS_P1;SDS_P2;PMS_P1;PMS_P2;Temp;Humidity;BMP_temperature;BMP_pressure;BME280_temperature;BME280_humidity;BME280_pressure;Samples;Min_cycle;Max_cycle;Signal;HPM_P1;HPM_P2
2022/12/26 00:02:06;;;;;;;17.33;10.30;;;;;;;7.92;93.89;100270.78;5006151;28;20731;-71
2022/12/26 00:04:33;;;;;;;15.93;9.70;;;;;;;7.87;94.10;100256.63;5006935;28;20246;-71
2022/12/26 00:07:18;;;;;;;16.00;9.20;;;;;;;7.88;94.29;100241.69;5008339;28;20276;-71
2022/12/26 00:09:44;;;;;;;15.77;8.90;;;;;;;7.77;94.40;100230.91;5008885;28;20560;-71
2022/12/26 00:12:10;;;;;;;18.20;9.67;;;;;;;7.81;94.02;100240.66;5008808;28;20668;-71
2022/12/26 00:14:38;;;;;;;15.90;9.57;;;;;;;7.97;93.58;100231.31;5012311;28;20232;-71
2022/12/26 00:17:04;;;;;;;17.30;10.03;;;;;;;7.81;93.88;100233.66;5006547;28;20231;-71
2022/12/26 00:19:30;;;;;;;14.37;9.50;;;;;;;7.84;93.50;100220.53;5012452;28;20693;-71
2022/12/26 00:21:57;;;;;;;16.80;9.60;;;;;;;7.81;93.64;100214.31;5010628;28;20203;-71
2022/12/26 00:24:23;;;;;;;16.90;9.50;;;;;;;7.77;93.70;100229.16;5011646;28;20221;-71
2022/12/26 00:26:49;;;;;;;19.73;10.57;;;;;;;7.64;93.58;100229.75;5011418;28;20507;-71
2022/12/26 00:29:16;;;;;;;17.30;10.33;;;;;;;7.66;94.26;100235.97;5009871;28;20220;-71
2022/12/26 00:31:42;;;;;;;16.33;9.77;;;;;;;7.53;94.43;100239.16;5010422;28;20228;-71
2022/12/26 00:34:09;;;;;;;17.67;9.53;;;;;;;7.58;94.35;100247.16;5008940;28;20251;-71
2022/12/26 00:36:36;;;;;;;17.10;9.93;;;;;;;7.53;94.53;100240.03;5011061;28;20266;-71
2022/12/26 00:39:03;;;;;;;17.83;9.63;;;;;;;7.45;94.65;100246.00;5011320;28;20248;-71
2022/12/26 00:41:29;;;;;;;16.80;9.73;;;;;;;7.50;94.51;100247.88;5014946;28;20263;-71
2022/12/26 00:43:57;;;;;;;17.10;9.73;;;;;;;7.53;94.64;100242.66;5001107;28;20239;-71
2022/12/26 00:46:24;;;;;;;18.07;9.30;;;;;;;7.54;94.37;100238.28;5011362;28;20228;-71
2022/12/26 00:48:51;;;;;;;18.57;9.87;;;;;;;7.47;94.59;100229.34;5010069;28;20206;-71
2022/12/26 00:51:17;;;;;;;20.67;9.67;;;;;;;7.43;94.93;100219.59;5014955;28;20194;-71
2022/12/26 00:53:44;;;;;;;18.00;9.17;;;;;;;7.37;94.92;100227.38;5010832;28;20231;-71
2022/12/26 00:56:11;;;;;;;18.57;10.77;;;;;;;7.29;95.02;100230.69;5010978;28;20196;-71
2022/12/26 00:58:37;;;;;;;22.30;12.07;;;;;;;7.25;95.46;100232.34;5010185;28;20207;-71
2022/12/26 01:01:06;;;;;;;20.97;11.10;;;;;;;7.29;95.79;100244.75;5011583;28;20725;-71
2022/12/26 01:03:33;;;;;;;17.00;10.00;;;;;;;7.55;95.48;100245.34;5010706;28;20236;-71
2022/12/26 01:06:03;;;;;;;18.43;10.00;;;;;;;7.46;95.56;100247.75;5011041;28;20227;-71
2022/12/26 01:08:31;;;;;;;13.87;8.77;;;;;;;7.59;95.47;100248.94;5011066;28;20208;-71
2022/12/26 01:11:02;;;;;;;18.27;9.20;;;;;;;7.71;94.94;100250.13;5011720;28;20359;-71
2022/12/26 01:13:28;;;;;;;15.37;8.83;;;;;;;7.70;94.76;100258.00;5009915;28;20196;-71
2022/12/26 01:15:55;;;;;;;14.63;8.80;;;;;;;7.60;94.87;100255.97;4994207;28;20231;-71
2022/12/26 01:18:21;;;;;;;14.20;8.77;;;;;;;7.57;94.96;100250.66;4992490;28;20196;-71
2022/12/26 01:20:48;;;;;;;13.93;8.27;;;;;;;7.56;94.91;100249.75;5011512;28;20200;-71
2022/12/26 01:23:16;;;;;;;14.83;7.93;;;;;;;7.58;94.94;100245.41;5008839;28;20208;-71
2022/12/26 01:25:42;;;;;;;12.60;8.00;;;;;;;7.51;95.11;100235.59;5011341;28;20254;-71
2022/12/26 01:28:28;;;;;;;17.73;8.50;;;;;;;7.44;94.89;100255.63;5010112;28;20611;-71
2022/12/26 01:30:55;;;;;;;14.73;8.00;;;;;;;7.41;95.04;100255.56;5011199;28;20238;-71
2022/12/26 01:33:21;;;;;;;13.73;7.90;;;;;;;7.38;95.23;100267.78;5010281;28;20234;-71
2022/12/26 01:35:49;;;;;;;15.10;8.40;;;;;;;7.37;95.49;100285.31;4992641;28;20312;-71
2022/12/26 01:38:16;;;;;;;14.10;7.70;;;;;;;7.46;95.37;100282.03;5010223;28;20204;-71
2022/12/26 01:40:42;;;;;;;11.43;7.83;;;;;;;7.37;94.97;100268.63;5010755;28;20635;-71
2022/12/26 01:43:11;;;;;;;15.13;8.23;;;;;;;7.45;95.12;100277.59;5004905;28;20726;-71
2022/12/26 01:45:38;;;;;;;14.40;8.13;;;;;;;7.38;94.89;100265.13;5010260;28;20763;-71
2022/12/26 01:48:14;;;;;;;13.47;7.90;;;;;;;7.37;95.08;100279.16;5006896;28;20572;-71
2022/12/26 01:50:48;;;;;;;13.90;7.87;;;;;;;7.38;94.87;100280.94;5010670;28;20200;-71
2022/12/26 01:53:20;;;;;;;13.93;7.50;;;;;;;7.38;95.32;100284.47;5008882;28;20553;-71
2022/12/26 01:55:51;;;;;;;15.10;7.90;;;;;;;7.47;95.03;100292.59;5009493;28;20220;-71
2022/12/26 01:58:23;;;;;;;12.60;7.33;;;;;;;7.33;95.21;100272.94;5010494;28;20619;-71
2022/12/26 02:00:50;;;;;;;12.50;7.90;;;;;;;7.48;95.06;100282.94;5005392;28;20635;-71
2022/12/26 02:06:02;;;;;;;16.17;8.53;;;;;;;7.60;94.65;100283.22;5016429;28;20230;-71
2022/12/26 02:08:33;;;;;;;13.80;8.17;;;;;;;7.66;94.25;100279.88;5010766;28;20926;-71
2022/12/26 02:11:08;;;;;;;12.80;7.63;;;;;;;7.67;94.50;100294.84;5007182;28;20227;-71
2022/12/26 02:13:37;;;;;;;14.37;7.67;;;;;;;7.71;93.84;100308.13;5005904;28;20195;-71
2022/12/26 02:16:05;;;;;;;13.40;8.00;;;;;;;7.74;93.69;100302.91;5008556;28;20215;-71
2022/12/26 02:18:32;;;;;;;11.17;7.17;;;;;;;7.72;93.87;100316.91;5009374;28;20279;-71
2022/12/26 02:21:24;;;;;;;12.67;7.67;;;;;;;7.75;93.90;100304.69;5009603;28;20205;-71
2022/12/26 02:24:27;;;;;;;13.43;7.50;;;;;;;7.81;93.72;100311.84;5009673;28;20310;-71
2022/12/26 02:27:23;;;;;;;11.27;7.53;;;;;;;7.84;93.69;100318.06;5009477;28;20227;-71
2022/12/26 02:30:17;;;;;;;11.80;7.27;;;;;;;7.90;93.36;100298.88;4975992;28;20880;-71
2022/12/26 02:33:11;;;;;;;12.23;7.00;;;;;;;7.90;93.34;100296.22;5007156;28;20626;-71
2022/12/26 02:35:51;;;;;;;17.13;7.63;;;;;;;7.90;93.29;100301.50;5008978;28;20316;-71
2022/12/26 02:38:33;;;;;;;10.70;6.70;;;;;;;7.84;93.11;100306.63;5003577;28;20204;-71
2022/12/26 02:41:15;;;;;;;12.23;6.87;;;;;;;7.85;93.57;100308.41;5010188;28;20889;-71
2022/12/26 02:43:53;;;;;;;10.77;6.83;;;;;;;7.87;93.56;100311.97;5006454;28;20225;-71
2022/12/26 02:49:27;;;;;;;10.17;6.33;;;;;;;8.01;93.07;100299.13;5008130;28;20248;-71
2022/12/26 03:17:18;;;;;;;11.57;6.57;;;;;;;8.05;93.12;100293.06;5010061;28;20580;-72
2022/12/26 03:18:19;;;;;;;9.67;6.07;;;;;;;7.98;92.92;100268.28;5006847;28;20198;-72
2022/12/26 03:21:07;;;;;;;10.17;6.40;;;;;;;7.98;92.73;100291.13;5002368;28;20199;-72
2022/12/26 03:23:37;;;;;;;14.40;7.27;;;;;;;7.98;92.86;100285.84;5008105;28;20699;-72
2022/12/26 03:30:47;;;;;;;12.87;6.77;;;;;;;7.90;93.44;100298.88;5008301;28;20239;-72
2022/12/26 03:31:45;;;;;;;11.80;6.50;;;;;;;7.86;93.60;100294.38;5006766;28;20216;-72
2022/12/26 03:34:18;;;;;;;11.23;6.53;;;;;;;7.83;93.62;100289.03;5008246;28;20247;-72
2022/12/26 03:37:05;;;;;;;11.43;6.53;;;;;;;7.83;93.90;100278.50;5009304;28;20200;-72
2022/12/26 04:41:34;;;;;;;12.30;6.37;;;;;;;7.79;93.16;100285.44;5011306;28;20244;-72
2022/12/26 04:44:09;;;;;;;8.97;5.67;;;;;;;7.98;91.93;100312.22;5010989;28;20234;-72
2022/12/26 04:46:38;;;;;;;10.90;6.40;;;;;;;8.06;92.35;100315.94;5010816;28;20196;-72
2022/12/26 04:51:54;;;;;;;11.90;6.23;;;;;;;7.98;92.27;100293.75;5011590;28;20204;-72
2022/12/26 04:54:21;;;;;;;8.93;5.93;;;;;;;7.97;92.58;100284.97;5009872;28;20461;-72
2022/12/26 04:56:47;;;;;;;8.63;5.67;;;;;;;7.97;92.76;100282.31;5002527;28;20207;-72
2022/12/26 04:59:14;;;;;;;13.63;5.73;;;;;;;7.98;93.00;100292.00;5010141;28;20197;-72
2022/12/26 05:10:30;;;;;;;8.70;5.30;;;;;;;7.99;93.77;100280.59;4975344;28;20203;-72
2022/12/26 05:12:57;;;;;;;10.53;5.57;;;;;;;8.09;93.93;100284.34;4993440;28;20247;-72
2022/12/26 05:15:23;;;;;;;10.57;5.90;;;;;;;8.03;93.27;100266.66;5010490;28;20967;-72
2022/12/26 05:29:02;;;;;;;9.03;5.57;;;;;;;8.31;93.07;100283.03;5009572;28;20734;-72
2022/12/26 05:31:29;;;;;;;10.20;5.80;;;;;;;8.35;93.06;100296.38;5007275;28;20271;-72
2022/12/26 05:34:14;;;;;;;10.00;5.70;;;;;;;8.55;90.87;100295.91;5008723;28;20280;-72
2022/12/26 05:36:43;;;;;;;15.73;5.60;;;;;;;8.60;90.39;100289.84;4992641;28;20203;-72
2022/12/26 05:39:10;;;;;;;12.97;5.00;;;;;;;8.52;91.01;100287.91;5010036;28;20195;-72
2022/12/26 05:41:37;;;;;;;10.20;5.40;;;;;;;8.54;91.11;100288.84;5008994;28;20208;-72
2022/12/26 05:44:04;;;;;;;10.70;5.30;;;;;;;8.68;90.91;100296.16;5009044;28;20231;-72
2022/12/26 05:46:31;;;;;;;8.20;5.20;;;;;;;8.59;90.83;100293.34;5009843;28;20695;-72
2022/12/26 05:48:57;;;;;;;9.57;5.13;;;;;;;8.56;91.23;100303.84;5010088;28;20200;-72
2022/12/26 05:51:24;;;;;;;8.00;4.60;;;;;;;8.50;91.00;100305.47;5010225;28;20201;-72
2022/12/26 05:53:50;;;;;;;10.73;4.93;;;;;;;8.53;91.39;100305.53;5010135;28;20618;-72
2022/12/26 05:56:18;;;;;;;8.77;5.03;;;;;;;8.49;91.25;100299.31;5008450;28;20248;-72
2022/12/26 05:58:45;;;;;;;9.20;4.80;;;;;;;8.66;90.84;100308.44;5010572;28;20291;-72
2022/12/26 06:01:19;;;;;;;8.03;5.00;;;;;;;8.69;91.03;100316.41;5010585;28;20677;-72
2022/12/26 06:03:48;;;;;;;8.47;5.73;;;;;;;8.83;90.05;100319.34;5009452;28;20244;-72
2022/12/26 06:06:15;;;;;;;8.07;4.73;;;;;;;8.78;90.26;100334.19;5007842;28;20199;-72
2022/12/26 06:08:42;;;;;;;8.73;4.63;;;;;;;8.66;90.43;100310.19;5009796;28;20212;-72
2022/12/26 06:11:11;;;;;;;7.57;4.60;;;;;;;8.72;90.38;100344.63;5010084;28;20281;-72
2022/12/26 06:13:39;;;;;;;7.83;4.77;;;;;;;8.64;90.93;100322.47;5009504;28;20213;-72
2022/12/26 06:16:16;;;;;;;7.83;4.67;;;;;;;8.52;90.80;100319.59;5007388;28;20294;-72
2022/12/26 06:18:43;;;;;;;8.23;4.40;;;;;;;8.60;91.29;100336.47;4991645;28;20204;-72
2022/12/26 06:21:13;;;;;;;8.57;4.40;;;;;;;8.61;91.71;100325.94;5010543;28;20671;-72
2022/12/26 06:23:40;;;;;;;8.10;4.93;;;;;;;8.68;91.73;100337.50;5008834;28;20268;-72
2022/12/26 06:26:08;;;;;;;8.70;4.70;;;;;;;8.76;91.17;100334.16;5009654;28;20219;-72
2022/12/26 06:28:35;;;;;;;9.63;5.10;;;;;;;8.86;90.81;100334.34;5009544;28;20196;-72
2022/12/26 06:31:23;;;;;;;6.97;4.77;;;;;;;8.83;90.72;100332.53;5006750;28;20703;-72
2022/12/26 06:33:54;;;;;;;7.50;5.27;;;;;;;8.73;90.75;100312.97;5007814;28;20204;-72
2022/12/26 06:36:23;;;;;;;9.30;5.07;;;;;;;8.83;90.92;100321.09;5010371;28;20202;-73
2022/12/26 06:38:50;;;;;;;10.23;4.80;;;;;;;8.81;91.16;100321.06;5009151;28;20213;-72
2022/12/26 06:41:19;;;;;;;8.17;5.33;;;;;;;8.78;90.90;100319.22;5004387;28;20203;-72
2022/12/26 06:43:46;;;;;;;6.80;4.17;;;;;;;8.80;91.18;100316.63;5007008;28;20208;-72
2022/12/26 06:46:14;;;;;;;9.73;4.70;;;;;;;8.82;91.31;100312.28;4989267;28;20202;-72
2022/12/26 06:48:41;;;;;;;8.83;5.10;;;;;;;8.76;90.96;100296.28;5009350;28;20675;-72
2022/12/26 06:51:14;;;;;;;7.00;4.97;;;;;;;8.71;91.25;100305.88;5007756;28;20710;-72
2022/12/26 06:53:41;;;;;;;7.90;4.77;;;;;;;8.71;90.97;100303.25;5008146;28;20202;-72
2022/12/26 06:56:10;;;;;;;7.70;4.73;;;;;;;8.81;91.17;100325.47;5008257;28;20203;-72
2022/12/26 06:58:36;;;;;;;7.37;4.47;;;;;;;8.86;90.96;100334.34;5009202;28;20262;-72
2022/12/26 07:01:10;;;;;;;8.60;4.97;;;;;;;8.85;91.03;100325.53;4991844;28;20249;-72
2022/12/26 07:03:37;;;;;;;9.73;5.40;;;;;;;8.86;91.24;100319.41;5008115;28;20589;-72
2022/12/26 07:06:15;;;;;;;10.00;5.30;;;;;;;8.86;90.90;100326.44;5009276;28;20229;-72
2022/12/26 07:08:42;;;;;;;8.30;5.33;;;;;;;8.95;90.98;100309.00;5009324;28;20632;-72
2022/12/26 07:11:16;;;;;;;8.13;4.67;;;;;;;8.96;90.18;100321.34;5009774;28;20241;-72
2022/12/26 07:13:42;;;;;;;7.13;4.60;;;;;;;9.03;90.37;100330.28;5006869;28;20236;-72
2022/12/26 07:16:10;;;;;;;9.57;4.70;;;;;;;9.11;89.45;100332.19;5007050;28;20227;-72
2022/12/26 07:18:36;;;;;;;6.10;4.13;;;;;;;9.24;88.57;100343.00;5005733;28;20246;-72
2022/12/26 07:21:05;;;;;;;8.93;4.57;;;;;;;9.16;88.67;100356.03;4992581;28;20431;-72
2022/12/26 07:23:31;;;;;;;6.80;4.50;;;;;;;9.13;89.06;100371.84;5012986;28;20193;-72
2022/12/26 07:25:58;;;;;;;5.73;4.23;;;;;;;8.98;89.22;100368.91;5010303;28;20281;-72
2022/12/26 07:28:25;;;;;;;7.17;4.80;;;;;;;8.96;89.94;100379.44;5011880;28;20827;-72
2022/12/26 07:30:52;;;;;;;12.33;6.90;;;;;;;8.90;89.89;100379.34;5011985;28;20378;-72
2022/12/26 07:33:18;;;;;;;8.60;5.40;;;;;;;8.80;90.43;100382.63;5013729;28;20249;-72
2022/12/26 07:35:45;;;;;;;10.60;4.77;;;;;;;8.74;90.74;100377.22;5013223;28;20851;-72
2022/12/26 07:38:12;;;;;;;8.00;4.97;;;;;;;8.74;91.09;100390.44;5011712;28;20226;-72
2022/12/26 07:40:38;;;;;;;24.37;14.13;;;;;;;8.64;91.52;100376.16;5012212;28;20636;-73
2022/12/26 07:43:05;;;;;;;12.70;7.10;;;;;;;8.61;91.83;100380.47;5013004;28;20234;-72
2022/12/26 07:45:31;;;;;;;10.27;5.20;;;;;;;8.61;92.06;100386.66;5012029;28;20297;-72
2022/12/26 07:47:58;;;;;;;7.97;4.80;;;;;;;8.60;92.24;100381.34;5012834;28;20199;-73
2022/12/26 07:50:26;;;;;;;10.27;5.37;;;;;;;8.61;92.75;100378.72;5011197;28;20196;-72
2022/12/26 07:52:53;;;;;;;11.13;5.17;;;;;;;8.66;92.84;100374.44;5011469;28;20222;-72
2022/12/26 07:55:20;;;;;;;15.97;8.00;;;;;;;8.64;92.84;100367.34;5011709;28;20336;-72
2022/12/26 07:57:51;;;;;;;11.97;6.33;;;;;;;8.71;93.30;100374.53;5010041;28;20217;-73
2022/12/26 08:00:18;;;;;;;11.47;6.93;;;;;;;8.65;93.63;100359.47;5004552;28;20277;-72
2022/12/26 08:02:49;;;;;;;10.70;5.60;;;;;;;8.70;93.46;100359.53;4992663;28;20217;-72
2022/12/26 08:05:16;;;;;;;11.83;7.07;;;;;;;8.68;93.45;100354.22;5012775;28;20234;-72
2022/12/26 08:07:46;;;;;;;11.10;6.33;;;;;;;8.71;93.50;100346.38;5009529;28;20662;-72
2022/12/26 08:10:14;;;;;;;13.53;8.20;;;;;;;8.73;93.44;100338.47;5011210;28;20215;-72
2022/12/26 08:12:40;;;;;;;11.47;7.23;;;;;;;8.72;93.58;100331.41;5010581;28;20233;-72
2022/12/26 08:15:08;;;;;;;11.83;7.27;;;;;;;8.74;93.75;100338.50;4993564;28;20781;-73
2022/12/26 08:17:35;;;;;;;8.73;6.00;;;;;;;8.71;93.74;100353.41;5012188;28;20207;-72
2022/12/26 08:20:01;;;;;;;8.33;6.03;;;;;;;8.66;93.63;100357.69;5012034;28;20208;-72
2022/12/26 08:22:28;;;;;;;9.60;5.77;;;;;;;8.64;93.85;100349.75;5010078;28;20199;-72
2022/12/26 08:24:54;;;;;;;9.20;6.13;;;;;;;8.72;94.16;100361.34;5011141;28;20659;-72
2022/12/26 08:27:20;;;;;;;8.00;5.43;;;;;;;8.71;93.88;100346.38;5010509;28;20230;-72
2022/12/26 08:29:47;;;;;;;8.10;5.43;;;;;;;8.74;93.74;100340.25;5010385;28;20207;-72
2022/12/26 08:32:13;;;;;;;10.53;5.50;;;;;;;8.84;94.34;100358.09;5008598;28;20205;-72
2022/12/26 08:34:39;;;;;;;9.13;4.90;;;;;;;8.88;94.24;100365.22;5011215;28;20274;-72
2022/12/26 08:37:06;;;;;;;11.00;5.47;;;;;;;8.92;94.81;100382.00;5011409;28;20198;-72
2022/12/26 08:39:32;;;;;;;8.90;4.90;;;;;;;8.98;94.87;100398.84;5011584;28;20199;-72
2022/12/26 08:41:59;;;;;;;10.10;5.60;;;;;;;8.95;94.43;100372.38;5009691;28;20491;-72
2022/12/26 08:44:25;;;;;;;10.63;5.00;;;;;;;8.97;94.25;100381.22;5010863;28;20779;-72
2022/12/26 08:46:53;;;;;;;8.90;5.03;;;;;;;9.00;94.36;100398.88;5005794;28;20234;-72
2022/12/26 08:49:20;;;;;;;10.37;4.57;;;;;;;9.06;94.35;100409.56;4984526;28;20196;-72
2022/12/26 08:51:46;;;;;;;8.20;4.47;;;;;;;9.05;94.01;100413.06;5011082;28;20202;-71
2022/12/26 08:54:12;;;;;;;13.10;4.60;;;;;;;9.08;94.16;100427.22;5010883;28;20230;-71
2022/12/26 08:56:39;;;;;;;7.63;4.17;;;;;;;9.09;94.32;100430.75;5010631;28;20517;-71
2022/12/26 08:59:06;;;;;;;11.07;5.10;;;;;;;9.17;94.08;100436.19;5010523;28;20253;-71
2022/12/26 09:01:33;;;;;;;8.53;4.53;;;;;;;9.22;93.65;100437.19;4994746;28;20205;-71
2022/12/26 09:04:02;;;;;;;16.47;5.03;;;;;;;9.23;93.62;100447.81;5009761;28;20247;-71
2022/12/26 09:06:32;;;;;;;6.13;4.27;;;;;;;9.26;93.89;100454.91;4990609;28;20223;-71
2022/12/26 09:08:59;;;;;;;8.50;4.17;;;;;;;9.30;93.38;100452.34;5010768;28;20265;-71
2022/12/26 09:11:26;;;;;;;5.97;3.77;;;;;;;9.25;93.44;100443.44;5010381;28;20201;-71
2022/12/26 09:13:54;;;;;;;10.57;4.47;;;;;;;9.27;93.85;100451.38;5010088;28;20261;-71
2022/12/26 09:16:27;;;;;;;8.50;4.63;;;;;;;9.34;93.57;100458.56;5042489;23;20665;-79
2022/12/26 09:19:00;;;;;;;9.27;4.20;;;;;;;9.37;93.58;100470.09;5045622;28;20210;-77
2022/12/26 09:21:28;;;;;;;7.70;4.33;;;;;;;9.43;93.54;100472.84;5040158;28;20591;-79
2022/12/26 09:23:59;;;;;;;7.63;4.10;;;;;;;9.50;93.73;100472.97;5050011;28;20712;-78
2022/12/26 09:26:26;;;;;;;9.37;4.60;;;;;;;9.60;93.47;100475.78;5039969;28;20265;-80
2022/12/26 09:28:53;;;;;;;12.47;4.80;;;;;;;9.64;92.74;100460.91;5034011;28;20200;-76
2022/12/26 09:31:22;;;;;;;8.13;4.43;;;;;;;9.77;92.47;100464.66;5031925;28;20209;-73
2022/12/26 09:33:50;;;;;;;15.10;4.10;;;;;;;9.87;92.06;100458.66;5032484;28;20745;-79
2022/12/26 09:36:22;;;;;;;6.73;4.00;;;;;;;9.93;91.93;100446.41;5043034;28;20218;-79
2022/12/26 09:38:49;;;;;;;8.17;3.80;;;;;;;10.08;91.19;100431.69;5015437;28;20198;-79
2022/12/26 09:41:36;;;;;;;9.50;3.70;;;;;;;10.11;90.87;100429.09;5035607;28;20221;-79
2022/12/26 09:44:29;;;;;;;10.13;4.77;;;;;;;10.10;90.71;100446.72;5034886;28;20204;-79
2022/12/26 09:47:23;;;;;;;9.40;3.87;;;;;;;10.17;90.77;100493.56;5027293;28;20769;-80
2022/12/26 09:49:56;;;;;;;7.53;3.47;;;;;;;10.25;89.85;100478.75;5042841;28;20208;-81
2022/12/26 09:52:47;;;;;;;8.80;3.70;;;;;;;10.30;89.87;100482.34;5030652;28;20238;-77
2022/12/26 09:55:18;;;;;;;6.13;2.90;;;;;;;10.47;88.92;100464.09;5040086;28;20713;-78
2022/12/26 09:57:49;;;;;;;5.37;2.73;;;;;;;10.57;88.44;100481.88;5027459;28;20411;-79
2022/12/26 10:00:27;;;;;;;4.80;2.30;;;;;;;10.66;87.50;100481.13;5033538;28;20570;-79
2022/12/26 10:02:56;;;;;;;4.63;2.30;;;;;;;10.66;87.63;100463.47;5027451;28;20233;-77
2022/12/26 10:05:29;;;;;;;4.23;2.40;;;;;;;10.76;87.51;100443.28;5027169;28;20264;-74
2022/12/26 10:08:11;;;;;;;4.53;2.50;;;;;;;10.87;86.73;100456.72;5023882;28;20212;-77
2022/12/26 10:10:50;;;;;;;3.63;2.50;;;;;;;10.94;86.60;100469.16;5025593;28;20724;-77
2022/12/26 10:13:49;;;;;;;4.50;2.37;;;;;;;11.02;86.83;100464.84;5027968;28;20706;-76
2022/12/26 10:16:58;;;;;;;3.73;2.20;;;;;;;11.06;86.46;100442.81;5019782;28;20257;-76
2022/12/26 10:20:00;;;;;;;4.93;2.33;;;;;;;11.12;86.26;100464.09;5026854;28;20203;-72
2022/12/26 10:22:32;;;;;;;5.27;2.60;;;;;;;11.19;86.21;100478.28;5028151;28;20201;-77
2022/12/26 10:25:01;;;;;;;3.90;2.17;;;;;;;11.12;86.27;100479.09;5023433;28;20832;-76
2022/12/26 10:27:35;;;;;;;4.33;2.20;;;;;;;11.17;86.66;100474.72;5028559;28;20226;-70
2022/12/26 10:30:13;;;;;;;3.30;1.90;;;;;;;11.25;85.98;100483.69;5027486;28;20206;-70
2022/12/26 10:32:44;;;;;;;2.53;1.67;;;;;;;11.29;86.13;100456.34;5004867;28;20294;-70
2022/12/26 10:35:27;;;;;;;4.30;1.50;;;;;;;11.30;86.14;100463.44;5026863;28;20227;-68
2022/12/26 10:37:57;;;;;;;4.13;1.70;;;;;;;11.37;85.62;100467.03;5025438;28;20198;-69
2022/12/26 10:40:28;;;;;;;2.80;1.50;;;;;;;11.50;84.91;100485.75;5030123;28;20337;-69
2022/12/26 10:42:59;;;;;;;5.07;1.63;;;;;;;11.47;85.04;100474.22;5033183;28;20213;-74
2022/12/26 10:45:52;;;;;;;5.43;1.73;;;;;;;11.47;84.24;100464.50;5026544;28;20248;-76
2022/12/26 10:48:20;;;;;;;2.63;1.50;;;;;;;11.61;84.60;100500.03;5024336;28;20274;-77
2022/12/26 10:50:48;;;;;;;6.27;1.90;;;;;;;11.67;83.71;100493.91;5028383;28;20203;-72
2022/12/26 10:53:15;;;;;;;5.93;2.40;;;;;;;11.72;83.50;100492.19;5028477;28;20230;-70
2022/12/26 10:55:42;;;;;;;5.03;1.90;;;;;;;11.71;83.65;100493.06;5026897;28;20225;-73
2022/12/26 10:58:18;;;;;;;4.83;2.50;;;;;;;11.83;82.23;100498.50;5024686;28;20250;-71
2022/12/26 11:00:45;;;;;;;3.77;1.80;;;;;;;11.86;82.43;100501.19;5024956;28;20227;-75
2022/12/26 11:03:14;;;;;;;4.03;1.90;;;;;;;11.90;81.33;100499.47;5022628;28;20203;-72
2022/12/26 11:05:43;;;;;;;2.67;1.60;;;;;;;11.83;82.26;100498.50;5024530;28;20663;-77
2022/12/26 11:08:47;;;;;;;2.40;1.43;;;;;;;11.92;81.32;100497.72;5027523;28;20633;-77
2022/12/26 11:11:17;;;;;;;1.30;1.20;;;;;;;12.00;81.41;100501.31;5030034;28;20203;-73
2022/12/26 11:13:52;;;;;;;1.97;1.00;;;;;;;11.97;81.03;100495.97;5017346;28;20222;-68
2022/12/26 11:16:32;;;;;;;2.67;1.30;;;;;;;12.07;81.33;100499.63;5034879;28;20220;-72
2022/12/26 11:18:59;;;;;;;4.40;1.30;;;;;;;12.18;80.33;100506.81;5033585;28;20693;-75
2022/12/26 11:21:30;;;;;;;1.13;1.00;;;;;;;12.19;79.94;100503.28;5040516;28;20204;-69
2022/12/26 11:24:06;;;;;;;2.00;1.00;;;;;;;12.20;80.73;100507.72;5034097;28;20210;-66
2022/12/26 11:26:32;;;;;;;1.17;0.90;;;;;;;12.14;79.85;100505.00;5033015;28;20261;-73
2022/12/26 11:29:16;;;;;;;2.03;1.00;;;;;;;12.17;80.17;100490.88;5033642;28;20195;-73
2022/12/26 11:31:55;;;;;;;1.57;0.90;;;;;;;12.17;80.20;100502.38;5029329;28;20203;-70
2022/12/26 11:34:47;;;;;;;2.10;1.00;;;;;;;12.18;79.80;100513.88;5034949;28;20708;-69
2022/12/26 11:37:29;;;;;;;1.73;1.13;;;;;;;12.14;79.80;100512.09;5030864;28;20195;-68
2022/12/26 11:39:57;;;;;;;2.53;1.77;;;;;;;12.17;80.32;100513.00;5030428;28;20960;-69
2022/12/26 11:42:24;;;;;;;3.33;2.23;;;;;;;12.30;80.16;100507.78;5035862;28;20241;-70
2022/12/26 11:44:54;;;;;;;2.17;1.20;;;;;;;12.44;78.92;100506.16;5034921;28;20269;-68
2022/12/26 11:47:24;;;;;;;1.63;1.10;;;;;;;12.44;78.62;100516.78;5028183;28;20239;-68
2022/12/26 11:50:10;;;;;;;1.37;1.00;;;;;;;12.45;78.17;100513.22;5031389;28;20683;-68
2022/12/26 11:52:45;;;;;;;1.07;0.80;;;;;;;12.30;78.70;100508.66;5032892;28;20239;-70
2022/12/26 11:55:21;;;;;;;1.30;1.10;;;;;;;12.18;79.49;100501.50;5030062;28;20279;-70
2022/12/26 11:58:14;;;;;;;2.20;1.33;;;;;;;12.22;79.69;100503.31;5031710;28;20585;-70
2022/12/26 12:01:04;;;;;;;1.97;1.40;;;;;;;12.24;80.02;100503.31;5029927;28;20237;-69
2022/12/26 12:03:47;;;;;;;2.90;1.40;;;;;;;12.11;78.88;100490.81;5001267;28;20314;-71
2022/12/26 12:06:52;;;;;;;1.97;1.43;;;;;;;12.19;79.50;100490.00;5032138;28;20667;-67
2022/12/26 12:09:45;;;;;;;2.67;1.60;;;;;;;12.19;78.77;100482.03;5028900;28;20227;-70
2022/12/26 12:12:29;;;;;;;4.70;2.70;;;;;;;12.12;78.48;100484.63;5041419;28;20202;-69
2022/12/26 12:15:18;;;;;;;7.43;4.07;;;;;;;11.99;78.81;100469.44;5029870;28;22077;-72
2022/12/26 12:18:04;;;;;;;8.03;4.10;;;;;;;12.01;79.69;100471.28;5036838;28;20249;-71
2022/12/26 12:20:39;;;;;;;2.00;1.80;;;;;;;12.04;80.03;100473.06;5037934;28;20252;-71
2022/12/26 12:23:39;;;;;;;3.40;1.60;;;;;;;12.11;79.28;100474.88;5033594;28;20221;-69
2022/12/26 12:26:11;;;;;;;3.43;1.43;;;;;;;12.15;78.62;100468.72;5042571;28;20699;-71
2022/12/26 12:29:02;;;;;;;4.43;2.23;;;;;;;12.04;79.09;100455.38;5037822;28;20210;-71
2022/12/26 12:31:44;;;;;;;3.57;1.87;;;;;;;12.09;78.53;100458.94;5036335;28;20247;-70
2022/12/26 12:34:28;;;;;;;2.73;1.50;;;;;;;12.03;78.25;100453.59;5030984;28;20740;-70
2022/12/26 12:37:17;;;;;;;3.67;1.20;;;;;;;11.98;78.12;100449.97;5042567;28;20199;-73
2022/12/26 12:40:12;;;;;;;3.00;1.50;;;;;;;11.96;77.99;100470.31;5030910;28;20308;-72
2022/12/26 12:43:04;;;;;;;1.90;1.07;;;;;;;12.04;77.35;100463.34;5033829;28;20615;-71
2022/12/26 12:45:35;;;;;;;2.80;1.50;;;;;;;12.08;77.51;100465.13;5014447;28;20252;-74
2022/12/26 12:48:04;;;;;;;2.03;1.10;;;;;;;12.27;76.05;100458.19;5027522;28;20217;-68
2022/12/26 12:50:48;;;;;;;2.50;1.10;;;;;;;12.15;75.99;100463.41;5035946;28;20729;-71
2022/12/26 12:53:42;;;;;;;2.77;0.90;;;;;;;12.19;76.15;100470.53;5041380;28;20285;-70
2022/12/26 12:56:41;;;;;;;2.10;1.00;;;;;;;12.19;75.65;100468.75;5036587;28;20271;-68
2022/12/26 12:59:41;;;;;;;3.27;0.93;;;;;;;12.29;74.96;100464.41;5034766;28;20198;-71
2022/12/26 13:02:22;;;;;;;1.90;1.00;;;;;;;12.31;74.53;100452.03;5041797;28;20206;-70
2022/12/26 13:04:58;;;;;;;1.67;0.83;;;;;;;12.45;74.01;100449.50;5026743;28;20229;-69
2022/12/26 13:07:33;;;;;;;1.93;1.00;;;;;;;12.41;73.56;100437.06;5041016;28;20244;-69
2022/12/26 13:10:03;;;;;;;1.73;1.00;;;;;;;12.48;73.55;100445.09;5033231;28;20203;-69
2022/12/26 13:12:34;;;;;;;4.03;1.13;;;;;;;12.38;73.90;100439.66;5028680;28;20312;-71
2022/12/26 13:15:07;;;;;;;2.07;1.20;;;;;;;12.37;73.81;100433.47;5037001;28;20742;-71
2022/12/26 13:17:51;;;;;;;2.27;1.00;;;;;;;12.17;73.82;100419.19;5031570;28;20251;-69
2022/12/26 13:20:26;;;;;;;4.30;1.80;;;;;;;12.24;74.11;100444.91;5007956;28;20203;-71
2022/12/26 13:25:56;;;;;;;3.10;1.10;;;;;;;12.03;74.84;100453.59;5029607;28;20604;-71
2022/12/26 13:28:36;;;;;;;3.53;1.10;;;;;;;12.03;74.64;100452.72;5025119;28;20285;-71
2022/12/26 13:31:03;;;;;;;1.70;1.10;;;;;;;11.96;75.53;100438.47;5028456;28;20235;-73
2022/12/26 13:33:30;;;;;;;1.73;0.93;;;;;;;11.93;75.26;100428.72;5034231;28;20205;-72
2022/12/26 13:36:02;;;;;;;1.73;1.07;;;;;;;11.90;76.21;100431.34;5033740;28;20754;-70
2022/12/26 13:38:54;;;;;;;3.50;1.27;;;;;;;11.84;75.11;100426.00;5033276;28;20447;-71
2022/12/26 13:44:17;;;;;;;1.40;1.00;;;;;;;11.85;75.25;100429.53;5033592;28;20323;-70
2022/12/26 13:46:46;;;;;;;1.27;0.90;;;;;;;11.85;75.25;100440.16;5029457;28;20311;-72
2022/12/26 13:49:36;;;;;;;3.33;1.07;;;;;;;11.90;77.06;100457.88;5025605;28;20199;-71
2022/12/26 13:52:09;;;;;;;3.67;1.30;;;;;;;11.63;80.35;100468.22;5034663;28;20885;-72
2022/12/26 13:54:49;;;;;;;3.57;1.13;;;;;;;11.11;84.34;100457.00;5030045;28;20231;-69
2022/12/26 13:57:26;;;;;;;1.10;0.90;;;;;;;10.72;84.31;100448.53;5032526;28;20194;-77